createdAt,value
2022-09-23T00:00:18.589Z,7.27
2022-09-23T00:02:48.789Z,6.87
2022-09-23T00:05:15.413Z,7.30
2022-09-23T00:07:41.717Z,7.97
2022-09-23T00:10:08.547Z,6.37
2022-09-23T00:12:34.935Z,6.83
2022-09-23T00:15:01.968Z,7.40
2022-09-23T00:17:28.333Z,7.30
2022-09-23T00:19:55.306Z,7.07
2022-09-23T00:22:21.881Z,7.10
2022-09-23T00:24:48.303Z,7.37
2022-09-23T00:27:14.640Z,7.43
2022-09-23T00:29:40.967Z,7.20
2022-09-23T00:32:07.347Z,8.17
2022-09-23T00:34:33.818Z,8.03
2022-09-23T00:37:00.139Z,7.47
2022-09-23T00:39:26.400Z,7.73
2022-09-23T00:41:52.709Z,6.90
2022-09-23T00:44:41.532Z,6.77
2022-09-23T00:47:34.240Z,7.33
2022-09-23T00:50:09.604Z,7.23
2022-09-23T00:52:37.391Z,6.17
2022-09-23T00:55:10.763Z,7.33
2022-09-23T00:57:38.653Z,6.57
2022-09-23T01:00:07.726Z,7.13
2022-09-23T01:02:34.587Z,6.40
2022-09-23T01:05:03.068Z,6.20
2022-09-23T01:07:30.065Z,6.70
2022-09-23T01:09:58.872Z,6.87
2022-09-23T01:12:41.679Z,5.77
2022-09-23T01:15:19.102Z,6.33
2022-09-23T01:18:13.622Z,7.13
2022-09-23T01:20:44.509Z,6.93
2022-09-23T01:23:38.716Z,6.80
2022-09-23T01:26:20.244Z,6.97
2022-09-23T01:29:15.085Z,6.50
2022-09-23T01:32:01.257Z,5.53
2022-09-23T01:34:53.999Z,6.17
2022-09-23T01:37:28.577Z,6.00
2022-09-23T01:40:11.033Z,6.10
2022-09-23T01:43:00.961Z,6.47
2022-09-23T01:45:33.925Z,6.40
2022-09-23T01:48:14.745Z,6.63
2022-09-23T01:50:56.304Z,6.20
2022-09-23T01:53:38.737Z,6.07
2022-09-23T01:56:34.081Z,6.03
2022-09-23T01:59:21.438Z,6.20
2022-09-23T02:01:55.382Z,5.63
2022-09-23T02:04:32.395Z,6.27
2022-09-23T02:07:05.837Z,5.63
2022-09-23T02:09:37.419Z,6.87
2022-09-23T02:12:12.501Z,6.20
2022-09-23T02:14:48.185Z,5.67
2022-09-23T02:17:17.132Z,5.70
2022-09-23T02:19:54.332Z,5.70
2022-09-23T02:22:34.404Z,5.57
2022-09-23T02:25:00.903Z,5.10
2022-09-23T02:27:36.700Z,5.70
2022-09-23T02:30:02.990Z,5.63
2022-09-23T02:32:50.740Z,5.17
2022-09-23T02:35:37.030Z,6.33
2022-09-23T02:38:24.218Z,5.43
2022-09-23T02:41:26.750Z,5.90
2022-09-23T02:44:07.366Z,4.57
2022-09-23T02:46:35.112Z,5.50
2022-09-23T02:49:20.751Z,5.03
2022-09-23T02:51:47.113Z,6.00
2022-09-23T02:54:17.824Z,6.33
2022-09-23T02:56:44.159Z,6.33
2022-09-23T02:59:12.271Z,6.30
2022-09-23T03:01:54.213Z,6.23
2022-09-23T03:04:47.212Z,5.90
2022-09-23T03:07:22.930Z,5.87
2022-09-23T03:10:14.992Z,6.33
2022-09-23T03:13:00.382Z,6.03
2022-09-23T03:15:45.346Z,5.67
2022-09-23T03:18:20.277Z,5.27
2022-09-23T03:20:56.328Z,5.40
2022-09-23T03:23:28.951Z,5.17
2022-09-23T03:25:58.062Z,5.30
2022-09-23T03:28:25.613Z,4.63
2022-09-23T03:30:54.209Z,5.33
2022-09-23T03:33:28.403Z,5.40
2022-09-23T03:36:20.935Z,6.10
2022-09-23T03:38:52.213Z,5.40
2022-09-23T03:41:31.664Z,5.03
2022-09-23T03:43:59.367Z,5.40
2022-09-23T03:46:29.883Z,5.97
2022-09-23T03:49:30.201Z,5.50
2022-09-23T03:51:56.669Z,5.37
2022-09-23T03:54:23.013Z,5.20
2022-09-23T03:56:49.590Z,5.90
2022-09-23T03:59:16.098Z,6.30
2022-09-23T04:01:43.422Z,6.23
2022-09-23T04:04:10.283Z,5.70
2022-09-23T04:06:36.653Z,6.07
2022-09-23T04:09:03.200Z,6.20
2022-09-23T04:11:29.639Z,6.70
2022-09-23T04:13:56.630Z,6.30
2022-09-23T04:16:23.604Z,5.57
2022-09-23T04:18:50.304Z,6.03
2022-09-23T04:21:16.656Z,5.77
2022-09-23T04:23:43.070Z,6.60
2022-09-23T04:26:09.827Z,6.37
2022-09-23T04:28:36.173Z,6.13
2022-09-23T04:31:09.475Z,5.70
2022-09-23T04:33:36.039Z,6.53
2022-09-23T04:36:02.500Z,5.57
2022-09-23T04:38:28.815Z,6.10
2022-09-23T04:40:55.138Z,5.60
2022-09-23T04:43:23.349Z,5.00
2022-09-23T04:46:05.037Z,6.90
2022-09-23T04:48:32.064Z,5.60
2022-09-23T04:51:12.597Z,6.13
2022-09-23T04:53:41.107Z,6.40
2022-09-23T04:56:10.176Z,5.83
2022-09-23T04:58:37.008Z,5.20
2022-09-23T05:01:18.661Z,6.33
2022-09-23T05:03:46.244Z,6.60
2022-09-23T05:06:14.630Z,6.13
2022-09-23T05:08:42.529Z,5.37
2022-09-23T05:11:08.894Z,5.90
2022-09-23T05:13:35.490Z,6.07
2022-09-23T05:16:08.096Z,5.47
2022-09-23T05:18:35.532Z,6.50
2022-09-23T05:21:02.968Z,5.93
2022-09-23T05:23:30.330Z,5.70
2022-09-23T05:25:58.985Z,5.73
2022-09-23T05:28:32.757Z,6.67
2022-09-23T05:31:08.109Z,6.90
2022-09-23T05:33:36.519Z,6.57
2022-09-23T05:36:04.059Z,6.67
2022-09-23T05:38:31.757Z,7.00
2022-09-23T05:41:00.009Z,6.73
2022-09-23T05:43:27.324Z,5.87
2022-09-23T05:46:08.639Z,7.00
2022-09-23T05:48:35.962Z,7.03
2022-09-23T05:51:03.073Z,8.13
2022-09-23T05:53:30.442Z,6.23
2022-09-23T05:55:57.613Z,6.20
2022-09-23T05:58:24.620Z,7.57
2022-09-23T06:00:51.681Z,6.23
2022-09-23T06:03:20.263Z,6.73
2022-09-23T06:05:48.314Z,7.07
2022-09-23T06:08:14.918Z,7.50
2022-09-23T06:10:43.941Z,6.90
2022-09-23T06:13:10.962Z,7.87
2022-09-23T06:15:38.869Z,7.20
2022-09-23T06:18:06.401Z,7.50
2022-09-23T06:20:34.436Z,7.60
2022-09-23T06:23:10.602Z,6.70
2022-09-23T06:25:40.649Z,6.83
2022-09-23T06:28:12.064Z,8.17
2022-09-23T06:30:39.697Z,7.20
2022-09-23T06:33:06.087Z,8.53
2022-09-23T06:35:33.135Z,7.17
2022-09-23T06:38:02.997Z,7.83
2022-09-23T06:40:29.382Z,8.10
2022-09-23T06:43:00.111Z,8.10
2022-09-23T06:45:27.141Z,7.93
2022-09-23T06:47:58.129Z,7.57
2022-09-23T06:50:26.319Z,7.73
2022-09-23T06:52:55.860Z,8.63
2022-09-23T06:55:27.051Z,8.73
2022-09-23T06:57:54.391Z,8.63
2022-09-23T07:00:21.111Z,6.63
2022-09-23T07:02:47.519Z,7.63
2022-09-23T07:05:16.317Z,7.90
2022-09-23T07:07:43.825Z,7.57
2022-09-23T07:10:11.515Z,7.47
2022-09-23T07:12:37.885Z,7.83
2022-09-23T07:15:04.846Z,7.60
2022-09-23T07:17:31.214Z,7.77
2022-09-23T07:19:58.352Z,6.60
2022-09-23T07:22:26.415Z,8.37
2022-09-23T07:24:56.372Z,8.93
2022-09-23T07:27:25.262Z,7.20
2022-09-23T07:29:52.451Z,7.53
2022-09-23T07:32:21.844Z,7.33
2022-09-23T07:34:48.799Z,7.37
2022-09-23T07:37:16.593Z,7.70
2022-09-23T07:39:43.955Z,7.07
2022-09-23T07:42:11.785Z,6.87
2022-09-23T07:44:38.113Z,7.10
2022-09-23T07:47:04.990Z,7.00
2022-09-23T07:49:31.356Z,6.97
2022-09-23T07:51:57.730Z,7.23
2022-09-23T07:54:25.424Z,7.67
2022-09-23T07:56:51.777Z,8.27
2022-09-23T07:59:18.512Z,8.13
2022-09-23T08:01:48.389Z,8.87
2022-09-23T08:04:17.849Z,7.63
2022-09-23T08:06:53.349Z,7.03
2022-09-23T08:09:22.631Z,7.03
2022-09-23T08:11:50.575Z,7.20
2022-09-23T08:14:18.369Z,7.87
2022-09-23T08:16:47.017Z,7.70
2022-09-23T08:19:13.485Z,6.83
2022-09-23T08:21:40.445Z,6.20
2022-09-23T08:24:08.868Z,5.73
2022-09-23T08:26:35.623Z,4.97
2022-09-23T08:29:02.097Z,5.03
2022-09-23T08:31:28.451Z,5.07
2022-09-23T08:33:56.313Z,5.00
2022-09-23T08:36:22.586Z,4.80
2022-09-23T08:38:48.964Z,5.33
2022-09-23T08:41:33.559Z,5.13
2022-09-23T08:44:04.380Z,4.43
2022-09-23T08:46:44.741Z,5.27
2022-09-23T08:49:17.039Z,6.40
2022-09-23T08:51:47.235Z,5.17
2022-09-23T08:54:16.916Z,5.73
2022-09-23T08:56:44.445Z,4.83
2022-09-23T08:59:13.733Z,4.13
2022-09-23T09:01:46.148Z,3.00
2022-09-23T09:04:22.667Z,3.40
2022-09-23T09:07:34.829Z,2.53
2022-09-23T09:10:03.359Z,2.63
2022-09-23T09:12:37.752Z,1.87
2022-09-23T09:15:07.767Z,2.40
2022-09-23T09:17:38.637Z,2.50
2022-09-23T09:20:05.439Z,2.77
2022-09-23T09:22:43.524Z,2.50
2022-09-23T09:25:24.078Z,2.77
2022-09-23T09:27:52.001Z,2.47
2022-09-23T09:30:19.370Z,2.47
2022-09-23T09:32:52.239Z,2.00
2022-09-23T09:35:37.619Z,2.47
2022-09-23T09:38:05.721Z,2.47
2022-09-23T09:40:34.439Z,2.20
2022-09-23T09:43:05.116Z,2.60
2022-09-23T09:46:01.558Z,2.23
2022-09-23T09:48:37.643Z,2.40
2022-09-23T09:51:22.200Z,2.40
2022-09-23T09:53:49.896Z,2.70
2022-09-23T09:56:18.549Z,2.73
2022-09-23T09:58:50.589Z,2.80
2022-09-23T10:01:21.625Z,2.57
2022-09-23T10:03:49.290Z,2.70
2022-09-23T10:06:19.357Z,2.50
2022-09-23T10:09:01.476Z,2.63
2022-09-23T10:11:28.382Z,2.10
2022-09-23T10:14:09.893Z,2.57
2022-09-23T10:16:37.105Z,2.00
2022-09-23T10:19:13.191Z,2.63
2022-09-23T10:21:42.149Z,2.60
2022-09-23T10:24:08.747Z,2.50
2022-09-23T10:26:44.454Z,2.33
2022-09-23T10:29:31.269Z,2.30
2022-09-23T10:32:37.809Z,2.03
2022-09-23T10:35:08.831Z,2.30
2022-09-23T10:37:48.255Z,2.57
2022-09-23T10:40:39.576Z,2.20
2022-09-23T10:43:43.761Z,2.20
2022-09-23T10:46:39.541Z,2.40
2022-09-23T10:49:31.281Z,1.90
2022-09-23T10:52:36.196Z,2.47
2022-09-23T10:55:30.136Z,2.17
2022-09-23T10:58:04.223Z,2.43
2022-09-23T11:00:40.960Z,1.93
2022-09-23T11:03:26.009Z,1.90
2022-09-23T11:05:52.238Z,2.37
2022-09-23T11:08:32.425Z,2.10
2022-09-23T11:11:23.154Z,2.43
2022-09-23T11:13:54.720Z,2.30
2022-09-23T11:16:36.095Z,2.40
2022-09-23T11:19:23.103Z,2.30
2022-09-23T11:21:58.930Z,2.30
2022-09-23T11:24:36.200Z,1.97
2022-09-23T11:27:11.341Z,2.47
2022-09-23T11:29:47.405Z,2.13
2022-09-23T11:32:51.081Z,2.10
2022-09-23T11:35:47.552Z,2.03
2022-09-23T11:38:25.953Z,2.13
2022-09-23T11:40:59.297Z,1.93
2022-09-23T11:43:29.105Z,2.77
2022-09-23T11:46:09.356Z,2.47
2022-09-23T11:48:38.140Z,2.20
2022-09-23T11:51:19.307Z,2.43
2022-09-23T11:53:54.977Z,2.60
2022-09-23T11:56:35.446Z,2.40
2022-09-23T11:59:11.850Z,2.43
2022-09-23T12:02:15.365Z,2.60
2022-09-23T12:04:57.866Z,3.03
2022-09-23T12:07:28.939Z,2.57
2022-09-23T12:10:03.417Z,2.20
2022-09-23T12:12:36.041Z,2.03
2022-09-23T12:15:14.362Z,1.60
2022-09-23T12:17:52.990Z,1.93
2022-09-23T12:20:30.353Z,2.07
2022-09-23T12:23:13.164Z,2.53
2022-09-23T12:25:46.493Z,2.07
2022-09-23T12:28:24.423Z,2.07
2022-09-23T12:30:55.131Z,2.03
2022-09-23T12:33:26.357Z,2.30
2022-09-23T12:35:54.952Z,2.40
2022-09-23T12:38:26.091Z,2.90
2022-09-23T12:40:55.710Z,2.50
2022-09-23T12:43:35.468Z,2.50
2022-09-23T12:46:18.894Z,2.57
2022-09-23T12:48:48.040Z,1.93
2022-09-23T12:51:17.496Z,2.57
2022-09-23T12:53:54.595Z,2.67
2022-09-23T12:56:22.796Z,2.67
2022-09-23T12:58:49.157Z,2.70
2022-09-23T13:01:15.598Z,2.30
2022-09-23T13:04:04.690Z,2.40
2022-09-23T13:06:39.711Z,2.50
2022-09-23T13:09:20.145Z,2.77
2022-09-23T13:11:47.928Z,2.50
2022-09-23T13:14:27.235Z,2.93
2022-09-23T13:16:54.462Z,2.80
2022-09-23T13:19:26.747Z,2.87
2022-09-23T13:21:53.016Z,3.13
2022-09-23T13:24:40.041Z,2.60
2022-09-23T13:27:15.303Z,2.60
2022-09-23T13:29:56.550Z,2.17
2022-09-23T13:32:28.641Z,3.00
2022-09-23T13:35:15.630Z,2.80
2022-09-23T13:37:47.703Z,2.67
2022-09-23T13:40:19.125Z,2.60
2022-09-23T13:42:51.235Z,2.50
2022-09-23T13:45:23.402Z,2.63
2022-09-23T13:47:51.401Z,2.43
2022-09-23T13:50:19.600Z,2.30
2022-09-23T13:52:50.811Z,2.53
2022-09-23T13:55:28.145Z,2.90
2022-09-23T13:58:04.118Z,2.43
2022-09-23T14:00:37.641Z,2.40
2022-09-23T14:03:17.265Z,2.87
2022-09-23T14:05:43.876Z,2.87
2022-09-23T14:08:10.167Z,3.30
2022-09-23T14:10:36.731Z,3.33
2022-09-23T14:13:03.132Z,3.03
2022-09-23T14:15:30.806Z,2.73
2022-09-23T14:18:04.533Z,2.93
2022-09-23T14:20:30.838Z,2.50
2022-09-23T14:23:11.836Z,2.60
2022-09-23T14:25:39.000Z,2.70
2022-09-23T14:28:05.476Z,2.63
2022-09-23T14:30:31.882Z,3.27
2022-09-23T14:32:59.211Z,2.70
2022-09-23T14:35:38.805Z,3.07
2022-09-23T14:38:24.114Z,3.03
2022-09-23T14:41:14.264Z,2.57
2022-09-23T14:44:01.399Z,2.90
2022-09-23T14:46:29.670Z,2.60
2022-09-23T14:49:11.201Z,2.70
2022-09-23T14:51:40.563Z,2.40
2022-09-23T14:54:45.025Z,2.77
2022-09-23T14:57:17.285Z,2.53
2022-09-23T14:59:51.434Z,3.10
2022-09-23T15:02:33.656Z,3.80
2022-09-23T15:05:20.515Z,2.83
2022-09-23T15:07:52.150Z,2.73
2022-09-23T15:10:19.777Z,2.40
2022-09-23T15:12:46.757Z,3.37
2022-09-23T15:15:14.664Z,3.17
2022-09-23T15:17:41.128Z,3.13
2022-09-23T15:20:17.333Z,3.03
2022-09-23T15:22:48.454Z,2.50
2022-09-23T15:25:20.370Z,2.73
2022-09-23T15:27:58.657Z,2.83
2022-09-23T15:30:25.271Z,3.13
2022-09-23T15:32:51.753Z,3.30
2022-09-23T15:35:19.489Z,2.80
2022-09-23T15:37:47.850Z,2.73
2022-09-23T15:40:22.920Z,3.33
2022-09-23T15:42:53.265Z,2.80
2022-09-23T15:45:23.482Z,2.93
2022-09-23T15:47:53.657Z,2.93
2022-09-23T15:50:19.974Z,2.90
2022-09-23T15:52:46.286Z,2.27
2022-09-23T15:55:16.747Z,2.50
2022-09-23T15:57:43.057Z,2.37
2022-09-23T16:00:12.339Z,1.80
2022-09-23T16:02:39.649Z,2.30
2022-09-23T16:05:07.529Z,2.10
2022-09-23T16:07:34.080Z,2.80
2022-09-23T16:10:00.475Z,2.27
2022-09-23T16:12:26.800Z,2.70
2022-09-23T16:14:53.060Z,2.50
2022-09-23T16:17:19.432Z,2.30
2022-09-23T16:19:45.672Z,2.27
2022-09-23T16:22:15.825Z,2.70
2022-09-23T16:24:42.201Z,2.33
2022-09-23T16:27:12.459Z,2.93
2022-09-23T16:29:38.769Z,3.17
2022-09-23T16:32:05.102Z,2.37
2022-09-23T16:34:32.097Z,2.23
2022-09-23T16:36:58.797Z,2.60
2022-09-23T16:39:25.098Z,2.23
2022-09-23T16:41:52.548Z,1.97
2022-09-23T16:44:18.853Z,2.13
2022-09-23T16:46:45.140Z,2.47
2022-09-23T16:49:11.965Z,1.77
2022-09-23T16:51:38.838Z,2.60
2022-09-23T16:54:10.127Z,2.97
2022-09-23T16:56:38.503Z,2.57
2022-09-23T16:59:04.888Z,2.07
2022-09-23T17:01:49.851Z,2.70
2022-09-23T17:04:18.841Z,2.17
2022-09-23T17:06:51.035Z,2.53
2022-09-23T17:09:19.765Z,2.50
2022-09-23T17:11:48.935Z,2.67
2022-09-23T17:14:16.019Z,2.37
2022-09-23T17:16:42.468Z,2.50
2022-09-23T17:19:10.858Z,2.30
2022-09-23T17:21:37.323Z,2.50
2022-09-23T17:24:04.635Z,2.50
2022-09-23T17:26:31.017Z,3.40
2022-09-23T17:28:59.310Z,3.47
2022-09-23T17:31:26.061Z,2.53
2022-09-23T17:33:52.900Z,2.90
2022-09-23T17:36:20.405Z,2.90
2022-09-23T17:38:47.198Z,3.27
2022-09-23T17:41:15.028Z,2.63
2022-09-23T17:43:41.550Z,2.70
2022-09-23T17:46:09.841Z,3.13
2022-09-23T17:48:38.554Z,3.10
2022-09-23T17:51:14.033Z,3.23
2022-09-23T17:53:43.057Z,3.57
2022-09-23T17:56:15.476Z,3.10
2022-09-23T17:58:42.737Z,3.10
2022-09-23T18:01:13.210Z,3.47
2022-09-23T18:03:39.692Z,3.50
2022-09-23T18:06:27.071Z,3.17
2022-09-23T18:08:53.499Z,3.60
2022-09-23T18:11:20.765Z,3.10
2022-09-23T18:13:48.133Z,3.23
2022-09-23T18:16:14.518Z,3.60
2022-09-23T18:18:40.879Z,3.43
2022-09-23T18:21:07.611Z,3.27
2022-09-23T18:23:33.940Z,3.20
2022-09-23T18:26:00.244Z,3.47
2022-09-23T18:28:33.935Z,3.53
2022-09-23T18:31:01.386Z,3.80
2022-09-23T18:33:27.689Z,3.67
2022-09-23T18:35:53.986Z,3.43
2022-09-23T18:38:20.610Z,3.40
2022-09-23T18:40:56.964Z,3.63
2022-09-23T18:43:37.211Z,3.90
2022-09-23T18:46:29.306Z,4.93
2022-09-23T18:49:14.323Z,4.60
2022-09-23T18:51:55.408Z,4.63
2022-09-23T18:54:27.609Z,4.93
2022-09-23T18:56:53.986Z,4.47
2022-09-23T18:59:24.715Z,4.20
2022-09-23T19:01:54.711Z,4.90
2022-09-23T19:04:21.351Z,4.13
2022-09-23T19:06:48.092Z,4.40
2022-09-23T19:09:15.485Z,4.43
2022-09-23T19:11:42.204Z,3.77
2022-09-23T19:14:11.330Z,4.07
2022-09-23T19:16:38.636Z,4.53
2022-09-23T19:19:06.072Z,5.03
2022-09-23T19:21:33.308Z,4.60
2022-09-23T19:24:03.515Z,5.13
2022-09-23T19:26:40.169Z,4.93
2022-09-23T19:29:08.566Z,4.97
2022-09-23T19:31:41.675Z,4.10
2022-09-23T19:34:11.629Z,4.73
2022-09-23T19:36:40.541Z,5.07
2022-09-23T19:39:12.097Z,6.03
2022-09-23T19:41:38.579Z,5.67
2022-09-23T19:44:07.170Z,4.63
2022-09-23T19:46:36.927Z,6.73
2022-09-23T19:49:04.204Z,6.27
2022-09-23T19:51:33.797Z,5.60
2022-09-23T19:54:01.082Z,5.73
2022-09-23T19:56:29.008Z,5.67
2022-09-23T19:58:55.573Z,5.93
2022-09-23T20:01:22.195Z,5.03
2022-09-23T20:03:48.890Z,6.10
2022-09-23T20:06:16.627Z,6.13
2022-09-23T20:08:44.259Z,7.20
2022-09-23T20:11:12.224Z,7.20
2022-09-23T20:13:40.161Z,6.67
2022-09-23T20:16:14.095Z,6.90
2022-09-23T20:18:41.072Z,7.10
2022-09-23T20:21:10.404Z,6.60
2022-09-23T20:23:37.084Z,7.00
2022-09-23T20:26:23.850Z,6.40
2022-09-23T20:28:51.441Z,6.87
2022-09-23T20:31:22.999Z,6.00
2022-09-23T20:33:50.228Z,6.13
2022-09-23T20:36:16.987Z,6.07
2022-09-23T20:38:43.428Z,7.33
2022-09-23T20:41:09.992Z,7.17
2022-09-23T20:43:36.435Z,7.03
2022-09-23T20:46:04.336Z,7.53
2022-09-23T20:48:31.313Z,6.40
2022-09-23T20:51:05.423Z,7.30
2022-09-23T20:53:32.540Z,6.80
2022-09-23T20:55:59.626Z,6.67
2022-09-23T20:58:29.103Z,7.53
2022-09-23T21:01:06.477Z,7.10
2022-09-23T21:03:33.742Z,6.93
2022-09-23T21:06:03.810Z,7.80
2022-09-23T21:08:31.223Z,6.90
2022-09-23T21:10:59.479Z,7.13
2022-09-23T21:13:25.844Z,7.17
2022-09-23T21:15:52.378Z,7.00
2022-09-23T21:18:22.396Z,7.50
2022-09-23T21:20:56.846Z,6.87
2022-09-23T21:23:32.403Z,6.30
2022-09-23T21:26:04.137Z,7.57
2022-09-23T21:28:31.901Z,6.67
2022-09-23T21:30:59.937Z,7.17
2022-09-23T21:33:26.980Z,7.07
2022-09-23T21:35:55.318Z,6.87
2022-09-23T21:38:22.857Z,7.23
2022-09-23T21:40:58.370Z,6.20
2022-09-23T21:43:26.354Z,6.93
2022-09-23T21:45:59.445Z,6.47
2022-09-23T21:48:28.415Z,6.50
2022-09-23T21:50:56.830Z,7.27
2022-09-23T21:53:23.738Z,6.43
2022-09-23T21:55:50.694Z,6.57
2022-09-23T21:58:17.284Z,7.07
2022-09-23T22:00:43.912Z,8.37
2022-09-23T22:03:11.921Z,7.43
2022-09-23T22:05:41.514Z,7.77
2022-09-23T22:08:08.985Z,6.33
2022-09-23T22:10:36.699Z,7.53
2022-09-23T22:13:03.633Z,6.50
2022-09-23T22:15:35.959Z,7.17
2022-09-23T22:18:02.380Z,7.33
2022-09-23T22:20:28.725Z,6.77
2022-09-23T22:22:55.793Z,7.13
2022-09-23T22:25:22.053Z,7.67
2022-09-23T22:28:06.854Z,6.53
2022-09-23T22:30:51.554Z,6.23
2022-09-23T22:33:17.804Z,6.83
2022-09-23T22:35:44.120Z,7.23
2022-09-23T22:38:10.448Z,7.37
2022-09-23T22:40:39.188Z,7.27
2022-09-23T22:43:05.674Z,8.40
2022-09-23T22:45:32.414Z,7.17
2022-09-23T22:47:58.661Z,7.37
2022-09-23T22:50:25.067Z,7.53
2022-09-23T22:52:51.987Z,8.27
2022-09-23T22:55:18.381Z,7.03
2022-09-23T22:57:44.632Z,7.50
2022-09-23T23:00:12.241Z,7.60
2022-09-23T23:02:39.813Z,7.37
2022-09-23T23:05:07.169Z,6.60
2022-09-23T23:07:34.943Z,8.37
2022-09-23T23:10:01.802Z,8.53
2022-09-23T23:12:28.122Z,8.03
2022-09-23T23:14:54.751Z,10.07
2022-09-23T23:17:21.674Z,9.70
2022-09-23T23:19:48.186Z,10.37
2022-09-23T23:22:14.585Z,9.33
2022-09-23T23:24:40.963Z,10.50
2022-09-23T23:27:07.298Z,10.57
2022-09-23T23:29:33.625Z,10.97
2022-09-23T23:31:59.969Z,10.73
2022-09-23T23:34:26.304Z,11.50
2022-09-23T23:36:54.416Z,10.17
2022-09-23T23:39:23.447Z,10.97
2022-09-23T23:41:58.052Z,11.53
2022-09-23T23:44:26.146Z,11.17
2022-09-23T23:46:53.100Z,11.13
2022-09-23T23:49:19.934Z,13.17
2022-09-23T23:51:46.414Z,13.77
2022-09-23T23:54:12.818Z,12.57
2022-09-23T23:56:39.167Z,12.77
2022-09-23T23:59:05.635Z,13.83
